Time;durP1;ratioP1;P1;durP2;ratioP2;P2;SDS_P1;SDS_P2;PMS_P1;PMS_P2;Temp;Humidity;BMP_temperature;BMP_pressure;BME280_temperature;BME280_humidity;BME280_pressure;Samples;Min_cycle;Max_cycle;Signal;HPM_P1;HPM_P2
2023/07/05 00:00:24;;;;;;;19.88;9.73;;;;;;;16.68;100.00;100272.53;4948223;28;20395;-75
2023/07/05 00:02:53;;;;;;;19.45;9.10;;;;;;;16.68;100.00;100259.25;4944609;28;20069;-75
2023/07/05 00:05:20;;;;;;;19.90;9.07;;;;;;;16.74;100.00;100274.22;4942451;28;20051;-73
2023/07/05 00:07:47;;;;;;;19.10;8.40;;;;;;;16.73;100.00;100260.66;4943683;28;20083;-74
2023/07/05 00:10:14;;;;;;;10.90;3.90;;;;;;;16.70;100.00;100273.63;4944369;28;20807;-75
2023/07/05 00:12:41;;;;;;;15.90;4.93;;;;;;;16.77;100.00;100275.31;4947442;28;20138;-74
2023/07/05 00:15:08;;;;;;;11.70;4.85;;;;;;;16.66;100.00;100275.03;4942707;28;20404;-75
2023/07/05 00:17:35;;;;;;;18.80;7.53;;;;;;;16.85;100.00;100268.91;4945319;28;20573;-73
2023/07/05 00:20:05;;;;;;;15.45;6.43;;;;;;;16.76;100.00;100265.34;4942168;28;20074;-74
2023/07/05 00:22:32;;;;;;;17.83;7.70;;;;;;;16.67;100.00;100257.72;4940205;28;20098;-74
2023/07/05 00:25:01;;;;;;;15.38;5.50;;;;;;;16.71;100.00;100260.38;4945546;28;20418;-73
2023/07/05 00:27:27;;;;;;;16.10;6.30;;;;;;;16.72;100.00;100251.47;4936621;28;20660;-73
2023/07/05 00:29:54;;;;;;;16.95;7.13;;;;;;;16.62;100.00;100249.94;4944816;28;20047;-73
2023/07/05 00:32:21;;;;;;;15.27;6.85;;;;;;;16.68;100.00;100236.81;4940235;28;20043;-75
2023/07/05 00:34:47;;;;;;;15.73;6.80;;;;;;;16.67;100.00;100228.84;4950323;28;20051;-75
2023/07/05 00:37:14;;;;;;;14.18;4.25;;;;;;;16.62;100.00;100238.72;4940168;28;20142;-75
2023/07/05 00:39:41;;;;;;;10.02;3.28;;;;;;;16.57;100.00;100236.53;4945160;28;20134;-73
2023/07/05 00:42:07;;;;;;;13.20;5.03;;;;;;;16.56;100.00;100225.75;4947387;28;20417;-75
2023/07/05 00:44:34;;;;;;;16.23;5.88;;;;;;;16.55;100.00;100229.81;4943765;28;20091;-73
2023/07/05 00:47:19;;;;;;;11.43;4.60;;;;;;;16.41;100.00;100225.63;4948056;28;20055;-72
2023/07/05 00:49:47;;;;;;;13.95;4.90;;;;;;;16.35;100.00;100240.75;4953345;28;20055;-72
2023/07/05 00:52:17;;;;;;;13.10;5.72;;;;;;;16.22;100.00;100242.91;4946270;28;20043;-73
2023/07/05 00:54:56;;;;;;;15.07;5.70;;;;;;;16.07;100.00;100230.75;4949797;28;20063;-73
2023/07/05 00:57:31;;;;;;;15.55;5.80;;;;;;;15.97;100.00;100223.59;4943771;28;20159;-71
2023/07/05 01:00:03;;;;;;;16.30;6.97;;;;;;;15.92;100.00;100219.38;4944846;28;20055;-72
2023/07/05 01:02:30;;;;;;;13.48;4.82;;;;;;;15.84;100.00;100211.72;4944351;28;20055;-74
2023/07/05 01:04:59;;;;;;;13.63;4.88;;;;;;;15.83;100.00;100213.75;4944999;28;20055;-72
2023/07/05 01:07:26;;;;;;;13.73;5.57;;;;;;;15.75;100.00;100215.28;4948440;28;20808;-72
2023/07/05 01:09:53;;;;;;;13.10;4.68;;;;;;;15.77;100.00;100209.22;4950358;28;20574;-73
2023/07/05 01:12:32;;;;;;;11.20;5.05;;;;;;;15.73;100.00;100203.75;4946322;28;20082;-72
2023/07/05 01:15:04;;;;;;;13.77;5.13;;;;;;;15.68;100.00;100215.59;4948439;28;20160;-72
2023/07/05 01:17:51;;;;;;;11.98;4.93;;;;;;;15.73;100.00;100217.78;4946798;28;20109;-72
2023/07/05 01:20:24;;;;;;;10.63;3.78;;;;;;;15.71;100.00;100220.28;4939343;28;20050;-71
2023/07/05 01:22:56;;;;;;;10.77;5.03;;;;;;;15.78;100.00;100203.16;4943444;28;20131;-75
2023/07/05 01:25:26;;;;;;;10.55;4.75;;;;;;;15.77;100.00;100204.41;4950094;28;20054;-72
2023/07/05 01:27:55;;;;;;;10.65;4.22;;;;;;;15.76;100.00;100194.44;4946878;28;20504;-72
2023/07/05 01:30:34;;;;;;;8.65;3.03;;;;;;;15.73;100.00;100195.34;4949632;28;20106;-73
2023/07/05 01:33:08;;;;;;;13.63;4.55;;;;;;;15.77;100.00;100196.00;4947486;29;20043;-72
2023/07/05 01:35:41;;;;;;;10.50;4.03;;;;;;;15.70;100.00;100185.06;4950124;28;20133;-72
2023/07/05 01:38:09;;;;;;;10.73;4.15;;;;;;;15.74;100.00;100180.13;4948200;28;20138;-73
2023/07/05 01:40:38;;;;;;;11.90;4.35;;;;;;;15.79;100.00;100171.09;4950301;28;20154;-71
2023/07/05 01:43:12;;;;;;;11.25;3.88;;;;;;;15.77;100.00;100170.00;4947354;28;20143;-72
2023/07/05 01:45:52;;;;;;;9.07;3.67;;;;;;;15.81;100.00;100160.19;4946907;28;20129;-71
2023/07/05 01:48:37;;;;;;;13.68;4.32;;;;;;;15.77;100.00;100161.59;4964126;28;20133;-73
2023/07/05 01:51:04;;;;;;;8.65;3.60;;;;;;;15.82;100.00;100150.53;4950066;28;20061;-73
2023/07/05 01:53:42;;;;;;;10.75;4.60;;;;;;;15.81;100.00;100143.38;4949284;28;20506;-73
2023/07/05 01:56:20;;;;;;;13.40;4.80;;;;;;;15.85;100.00;100132.00;4950061;28;20134;-74
2023/07/05 01:58:51;;;;;;;9.48;4.15;;;;;;;15.86;100.00;100128.72;4950079;28;20490;-72
2023/07/05 02:01:21;;;;;;;13.32;3.53;;;;;;;15.88;100.00;100128.25;4942925;28;20079;-73
2023/07/05 02:03:50;;;;;;;10.10;3.85;;;;;;;15.84;100.00;100114.41;4942126;28;20043;-73
2023/07/05 02:06:18;;;;;;;11.38;3.95;;;;;;;15.91;100.00;100094.47;4948807;28;20092;-71
2023/07/05 02:08:49;;;;;;;10.98;3.55;;;;;;;15.92;100.00;100089.63;4949517;28;20078;-73
2023/07/05 02:11:16;;;;;;;7.05;3.35;;;;;;;15.93;100.00;100094.00;4947849;28;20047;-72
2023/07/05 02:13:43;;;;;;;8.32;2.60;;;;;;;15.89;100.00;100085.75;4937404;28;20051;-72
2023/07/05 02:16:09;;;;;;;11.65;3.95;;;;;;;15.93;100.00;100083.56;4943375;28;20058;-72
2023/07/05 02:18:36;;;;;;;8.73;3.15;;;;;;;15.89;100.00;100082.16;4944446;28;20423;-70
2023/07/05 02:21:08;;;;;;;8.93;3.20;;;;;;;15.87;100.00;100088.22;4949842;28;20074;-73
2023/07/05 02:23:34;;;;;;;3.58;1.70;;;;;;;15.85;100.00;100076.72;4943630;28;20099;-74
2023/07/05 02:26:04;;;;;;;2.30;1.35;;;;;;;15.77;100.00;100074.72;4945162;28;20115;-73
2023/07/05 02:28:32;;;;;;;7.00;3.28;;;;;;;15.98;100.00;100079.34;4947863;28;20058;-74
2023/07/05 02:31:06;;;;;;;10.13;3.58;;;;;;;15.96;100.00;100077.00;4949211;28;20528;-68
2023/07/05 02:33:34;;;;;;;3.90;1.83;;;;;;;15.92;100.00;100070.00;4943450;28;20043;-74
2023/07/05 02:36:12;;;;;;;5.00;0.88;;;;;;;15.93;100.00;100071.59;4951119;28;20062;-71
2023/07/05 02:38:40;;;;;;;10.75;3.38;;;;;;;15.98;100.00;100045.72;4953352;28;20086;-72
2023/07/05 02:41:08;;;;;;;10.07;3.70;;;;;;;15.97;100.00;100070.16;4952989;28;20086;-74
2023/07/05 02:43:35;;;;;;;4.47;1.92;;;;;;;15.94;100.00;100064.72;4953133;28;20150;-74
2023/07/05 02:46:01;;;;;;;5.65;1.75;;;;;;;15.90;100.00;100094.94;4950120;28;20069;-71
2023/07/05 02:48:28;;;;;;;4.88;2.20;;;;;;;15.90;100.00;100087.28;4950417;28;20079;-72
2023/07/05 02:50:55;;;;;;;4.82;2.67;;;;;;;15.92;100.00;100084.03;4951945;28;20146;-72
2023/07/05 02:53:21;;;;;;;2.97;1.38;;;;;;;15.79;100.00;100075.78;4948334;28;20105;-71
2023/07/05 02:55:49;;;;;;;3.50;1.33;;;;;;;15.75;100.00;100083.59;4952732;28;20055;-74
2023/07/05 02:58:16;;;;;;;2.53;1.38;;;;;;;15.80;100.00;100082.19;4952953;28;20586;-72
2023/07/05 03:00:43;;;;;;;5.47;2.38;;;;;;;15.80;100.00;100082.94;4952591;28;20239;-75
2023/07/05 03:03:10;;;;;;;3.00;1.55;;;;;;;15.79;100.00;100083.41;4953881;28;20048;-74
2023/07/05 03:05:36;;;;;;;5.40;2.60;;;;;;;15.73;100.00;100088.88;4952427;28;20106;-75
2023/07/05 03:08:03;;;;;;;6.93;2.08;;;;;;;15.77;100.00;100094.31;4952645;28;20062;-72
2023/07/05 03:10:30;;;;;;;4.28;2.10;;;;;;;15.75;100.00;100086.38;4952556;28;20059;-72
2023/07/05 03:12:56;;;;;;;6.22;2.95;;;;;;;15.81;100.00;100086.53;4952249;28;20518;-73
2023/07/05 03:15:23;;;;;;;7.30;2.90;;;;;;;15.76;100.00;100084.38;4950917;28;20111;-73
2023/07/05 03:17:49;;;;;;;5.78;2.45;;;;;;;15.67;100.00;100096.38;4950385;28;20101;-72
2023/07/05 03:20:16;;;;;;;9.18;4.05;;;;;;;15.71;100.00;100091.38;4945310;28;20127;-71
2023/07/05 03:22:42;;;;;;;6.78;3.10;;;;;;;15.70;100.00;100094.63;4949794;28;20039;-74
2023/07/05 03:25:09;;;;;;;4.22;1.70;;;;;;;15.69;100.00;100087.50;4944684;28;20051;-71
2023/07/05 03:27:35;;;;;;;10.57;3.17;;;;;;;15.72;100.00;100100.53;4952726;29;20047;-74
2023/07/05 03:30:02;;;;;;;3.30;1.83;;;;;;;15.65;100.00;100104.44;4952513;28;20043;-74
2023/07/05 03:32:29;;;;;;;3.72;1.83;;;;;;;15.68;100.00;100097.91;4947076;28;20060;-73
2023/07/05 03:34:56;;;;;;;3.65;1.50;;;;;;;15.67;100.00;100118.78;4947824;28;20078;-74
2023/07/05 03:37:28;;;;;;;3.75;2.22;;;;;;;15.77;100.00;100116.75;4949951;28;20536;-73
2023/07/05 03:39:55;;;;;;;9.77;2.83;;;;;;;15.74;100.00;100112.88;4951949;28;20051;-74
2023/07/05 03:42:21;;;;;;;2.95;1.35;;;;;;;15.75;100.00;100120.00;4951499;28;20051;-72
2023/07/05 03:44:48;;;;;;;6.65;2.00;;;;;;;15.67;100.00;100129.97;4950479;28;20541;-74
2023/07/05 03:47:15;;;;;;;3.63;2.20;;;;;;;15.71;100.00;100116.59;4951893;28;20146;-72
2023/07/05 03:49:41;;;;;;;5.93;2.03;;;;;;;15.54;100.00;100132.16;4948902;28;20134;-74
2023/07/05 03:52:08;;;;;;;5.38;2.03;;;;;;;15.58;100.00;100138.38;4949939;28;20114;-75
2023/07/05 03:54:34;;;;;;;2.95;1.60;;;;;;;15.55;100.00;100122.50;4948574;28;20410;-74
2023/07/05 03:57:01;;;;;;;3.00;1.50;;;;;;;15.46;100.00;100116.88;4951785;28;20051;-72
2023/07/05 03:59:27;;;;;;;4.05;1.70;;;;;;;15.27;100.00;100114.47;4951977;28;20108;-72
2023/07/05 04:01:55;;;;;;;5.65;2.00;;;;;;;15.02;100.00;100111.94;4951213;28;20051;-72
2023/07/05 04:04:22;;;;;;;3.90;1.52;;;;;;;14.89;100.00;100135.22;4951919;28;20051;-76
2023/07/05 04:06:49;;;;;;;2.85;1.15;;;;;;;14.78;100.00;100134.06;4946655;28;20074;-74
2023/07/05 04:09:15;;;;;;;7.05;2.60;;;;;;;14.49;100.00;100150.41;4944914;28;20047;-73
2023/07/05 04:11:42;;;;;;;3.90;1.58;;;;;;;14.43;100.00;100121.47;4948589;28;20057;-72
2023/07/05 04:14:09;;;;;;;8.10;2.47;;;;;;;14.43;100.00;100149.44;4951273;28;20102;-75
2023/07/05 04:16:35;;;;;;;3.90;1.50;;;;;;;14.08;100.00;100157.09;4951347;28;20470;-71
2023/07/05 04:19:02;;;;;;;3.67;1.27;;;;;;;14.08;100.00;100167.50;4951856;28;20079;-72
2023/07/05 04:21:29;;;;;;;5.78;1.67;;;;;;;13.97;100.00;100159.50;4951408;28;20051;-74
2023/07/05 04:23:56;;;;;;;5.45;1.65;;;;;;;14.04;100.00;100166.88;4943937;28;20051;-74
2023/07/05 04:26:24;;;;;;;6.78;2.17;;;;;;;14.05;100.00;100171.22;4950395;28;20098;-75
2023/07/05 04:28:51;;;;;;;5.57;2.30;;;;;;;13.68;100.00;100166.53;4946640;28;20107;-74
2023/07/05 04:31:27;;;;;;;4.70;1.60;;;;;;;13.71;100.00;100179.59;4942700;29;20062;-76
2023/07/05 04:33:56;;;;;;;7.20;2.25;;;;;;;13.63;100.00;100179.06;4950714;28;20768;-74
2023/07/05 04:36:24;;;;;;;5.53;1.83;;;;;;;13.53;100.00;100179.41;4950628;28;20082;-76
2023/07/05 04:38:57;;;;;;;6.88;1.58;;;;;;;13.72;100.00;100175.56;4944008;28;20047;-74
2023/07/05 04:41:28;;;;;;;4.15;1.30;;;;;;;13.52;100.00;100181.44;4948769;28;20055;-75
2023/07/05 04:43:55;;;;;;;4.72;1.50;;;;;;;13.61;100.00;100178.72;4945921;28;20055;-75
2023/07/05 04:46:22;;;;;;;7.22;2.90;;;;;;;13.60;100.00;100187.56;4951073;28;20055;-75
2023/07/05 04:48:48;;;;;;;5.45;2.35;;;;;;;13.40;100.00;100198.19;4951206;28;20062;-73
2023/07/05 04:51:15;;;;;;;7.65;2.90;;;;;;;13.58;100.00;100185.22;4950069;28;20063;-75
2023/07/05 04:53:41;;;;;;;5.82;1.90;;;;;;;13.39;100.00;100193.81;4948760;28;20078;-75
2023/07/05 04:56:13;;;;;;;6.43;1.98;;;;;;;13.44;100.00;100205.22;4949909;28;20051;-74
2023/07/05 04:58:40;;;;;;;7.75;2.67;;;;;;;13.47;100.00;100201.53;4944912;29;20125;-74
2023/07/05 05:01:07;;;;;;;3.63;1.67;;;;;;;13.41;100.00;100192.16;4950719;28;20047;-73
2023/07/05 05:03:34;;;;;;;6.65;2.30;;;;;;;13.43;100.00;100208.50;4945386;28;20085;-73
2023/07/05 05:06:01;;;;;;;6.57;1.70;;;;;;;13.50;100.00;100202.69;4946863;28;20074;-74
2023/07/05 05:08:28;;;;;;;4.50;1.25;;;;;;;13.47;100.00;100203.56;4941323;28;20055;-74
2023/07/05 05:10:57;;;;;;;6.03;2.00;;;;;;;13.52;100.00;100203.00;4947242;28;20590;-77
2023/07/05 05:13:25;;;;;;;6.90;2.38;;;;;;;13.35;100.00;100198.75;4948279;28;20801;-75
2023/07/05 05:15:52;;;;;;;4.75;1.83;;;;;;;13.54;100.00;100197.75;4948342;28;20043;-75
2023/07/05 05:18:18;;;;;;;5.72;1.60;;;;;;;13.48;100.00;100210.72;4948887;28;20051;-73
2023/07/05 05:20:46;;;;;;;3.72;1.67;;;;;;;13.63;100.00;100197.81;4942665;28;20074;-74
2023/07/05 05:23:12;;;;;;;6.22;2.65;;;;;;;13.48;100.00;100200.34;4943199;28;20043;-76
2023/07/05 05:25:42;;;;;;;5.10;2.05;;;;;;;13.64;100.00;100205.00;4948767;28;20062;-75
2023/07/05 05:28:09;;;;;;;3.25;1.40;;;;;;;13.70;100.00;100215.13;4949220;29;20047;-75
2023/07/05 05:30:37;;;;;;;7.03;2.83;;;;;;;13.83;100.00;100201.91;4946621;28;20053;-74
2023/07/05 05:33:04;;;;;;;8.85;2.80;;;;;;;13.88;100.00;100203.34;4945241;28;20040;-74
2023/07/05 05:35:32;;;;;;;6.25;2.35;;;;;;;13.72;100.00;100211.88;4947420;28;20096;-75
2023/07/05 05:37:58;;;;;;;12.60;2.75;;;;;;;13.93;100.00;100195.19;4948344;28;20570;-77
2023/07/05 05:40:25;;;;;;;10.13;3.70;;;;;;;13.88;100.00;100215.28;4945852;28;20153;-76
2023/07/05 05:42:52;;;;;;;7.78;2.65;;;;;;;13.86;100.00;100214.97;4949528;28;20047;-75
2023/07/05 05:45:19;;;;;;;6.25;2.67;;;;;;;13.82;100.00;100219.13;4950181;28;20058;-74
2023/07/05 05:47:45;;;;;;;3.60;1.80;;;;;;;13.92;100.00;100218.78;4949291;28;20489;-74
2023/07/05 05:50:12;;;;;;;5.38;2.08;;;;;;;13.83;100.00;100207.50;4946178;28;20051;-75
2023/07/05 05:52:38;;;;;;;6.40;1.90;;;;;;;13.88;100.00;100217.31;4946478;28;20055;-75
2023/07/05 05:55:05;;;;;;;12.07;3.78;;;;;;;13.80;100.00;100222.38;4944019;28;20075;-75
2023/07/05 05:57:32;;;;;;;6.25;2.15;;;;;;;13.92;100.00;100217.97;4948553;28;20051;-74
2023/07/05 05:59:59;;;;;;;8.05;3.42;;;;;;;13.78;100.00;100233.19;4942250;28;20106;-75
2023/07/05 06:02:25;;;;;;;6.03;2.13;;;;;;;13.98;100.00;100207.78;4940518;28;20098;-75
2023/07/05 06:04:52;;;;;;;3.33;1.23;;;;;;;14.01;100.00;100215.28;4958235;28;20545;-74
2023/07/05 06:07:18;;;;;;;2.65;0.95;;;;;;;14.08;100.00;100210.19;4953719;28;20061;-74
2023/07/05 06:09:49;;;;;;;8.60;2.63;;;;;;;14.00;100.00;100211.69;4949370;28;20078;-74
2023/07/05 06:12:16;;;;;;;6.57;2.75;;;;;;;14.01;100.00;100210.44;4947118;28;20133;-74
2023/07/05 06:14:42;;;;;;;4.68;2.05;;;;;;;13.89;100.00;100221.69;4950945;28;20875;-75
2023/07/05 06:17:10;;;;;;;4.40;2.05;;;;;;;13.99;100.00;100210.13;4950688;28;20114;-75
2023/07/05 06:19:38;;;;;;;10.07;3.25;;;;;;;14.21;100.00;100221.34;4946127;28;20429;-71
2023/07/05 06:22:05;;;;;;;6.07;1.70;;;;;;;14.03;100.00;100216.38;4950770;28;20165;-73
2023/07/05 06:24:31;;;;;;;5.75;1.85;;;;;;;14.00;100.00;100206.09;4940856;28;20510;-72
2023/07/05 06:26:59;;;;;;;13.05;4.03;;;;;;;13.89;100.00;100236.44;4947822;28;20074;-73
2023/07/05 06:29:25;;;;;;;3.35;1.60;;;;;;;13.97;100.00;100223.78;4940584;28;20553;-73
2023/07/05 06:31:52;;;;;;;5.18;1.98;;;;;;;13.98;100.00;100221.78;4953095;28;20110;-72
2023/07/05 06:34:20;;;;;;;4.75;1.85;;;;;;;14.02;100.00;100231.59;4950054;28;21489;-72
2023/07/05 06:36:46;;;;;;;6.88;1.90;;;;;;;14.30;100.00;100233.38;4952139;28;20047;-72
2023/07/05 06:39:13;;;;;;;6.03;2.00;;;;;;;14.12;100.00;100226.84;4948368;28;20090;-74
2023/07/05 06:41:40;;;;;;;7.63;2.20;;;;;;;14.31;100.00;100236.94;4943929;28;20117;-72
2023/07/05 06:44:07;;;;;;;5.22;1.98;;;;;;;14.19;100.00;100238.56;4949954;28;20047;-74
2023/07/05 06:46:33;;;;;;;5.85;2.25;;;;;;;14.12;100.00;100252.00;4949952;28;20052;-72
2023/07/05 06:49:00;;;;;;;4.15;2.15;;;;;;;14.09;100.00;100252.91;4950344;28;20059;-77
2023/07/05 06:51:26;;;;;;;7.82;2.88;;;;;;;14.04;100.00;100250.72;4941769;28;20126;-75
2023/07/05 06:53:53;;;;;;;5.47;1.75;;;;;;;14.09;100.00;100262.09;4940629;28;20524;-77
2023/07/05 06:56:20;;;;;;;6.72;2.60;;;;;;;13.91;100.00;100266.72;4943995;28;20642;-73
2023/07/05 06:58:47;;;;;;;6.10;2.83;;;;;;;13.88;100.00;100253.66;4942843;29;20051;-75
2023/07/05 07:01:13;;;;;;;6.22;1.95;;;;;;;13.87;100.00;100252.88;4945143;28;20091;-72
2023/07/05 07:03:41;;;;;;;8.77;2.70;;;;;;;14.12;100.00;100233.25;4940105;28;20054;-71
2023/07/05 07:06:08;;;;;;;4.30;1.75;;;;;;;14.17;100.00;100254.22;4937439;28;20772;-72
2023/07/05 07:08:35;;;;;;;6.80;2.17;;;;;;;13.96;100.00;100249.38;4951385;28;20592;-74
2023/07/05 07:11:03;;;;;;;4.45;1.50;;;;;;;14.19;100.00;100279.72;4944331;28;20522;-74
2023/07/05 07:13:31;;;;;;;5.63;2.22;;;;;;;14.00;100.00;100283.56;4944238;28;20051;-72
2023/07/05 07:16:14;;;;;;;10.25;2.55;;;;;;;14.06;100.00;100278.97;4943586;28;20135;-74
2023/07/05 07:18:45;;;;;;;4.13;1.73;;;;;;;14.20;100.00;100264.50;4940887;28;20548;-73
2023/07/05 07:21:13;;;;;;;4.38;1.75;;;;;;;13.91;100.00;100277.91;4937393;28;20106;-73
2023/07/05 07:23:40;;;;;;;12.85;2.65;;;;;;;13.73;100.00;100288.88;4947697;28;20138;-72
2023/07/05 07:26:08;;;;;;;7.68;2.33;;;;;;;13.96;100.00;100266.13;4943096;28;20047;-72
2023/07/05 07:28:35;;;;;;;4.68;1.65;;;;;;;14.22;100.00;100279.56;4945389;28;20612;-75
2023/07/05 07:31:19;;;;;;;4.88;1.38;;;;;;;14.08;100.00;100280.06;4935064;28;20392;-72
2023/07/05 07:33:47;;;;;;;7.28;2.45;;;;;;;13.86;100.00;100303.59;4940322;28;20050;-73
2023/07/05 07:36:17;;;;;;;4.25;1.90;;;;;;;13.86;100.00;100286.84;4945051;28;20620;-74
2023/07/05 07:38:44;;;;;;;6.30;1.58;;;;;;;13.76;100.00;100301.94;4948223;28;20047;-73
2023/07/05 07:41:32;;;;;;;5.10;1.80;;;;;;;13.65;100.00;100293.13;4943587;28;20424;-74
2023/07/05 07:44:07;;;;;;;4.63;1.17;;;;;;;13.71;100.00;100316.50;4951340;28;20055;-73
2023/07/05 07:46:35;;;;;;;6.72;1.75;;;;;;;13.27;100.00;100306.28;4951303;28;20070;-74
2023/07/05 07:49:04;;;;;;;9.57;1.58;;;;;;;13.28;100.00;100316.22;4941055;28;20082;-74
2023/07/05 07:51:34;;;;;;;4.53;1.70;;;;;;;13.17;100.00;100307.41;4943205;28;20054;-74
2023/07/05 07:54:13;;;;;;;3.22;1.30;;;;;;;13.13;100.00;100310.28;4948615;28;20177;-75
2023/07/05 07:56:44;;;;;;;1.88;1.10;;;;;;;13.14;100.00;100311.06;4949150;28;20059;-74
2023/07/05 07:59:11;;;;;;;5.47;1.98;;;;;;;13.27;100.00;100320.25;4943863;28;20106;-75
2023/07/05 08:01:39;;;;;;;3.92;1.75;;;;;;;13.25;100.00;100328.28;4943060;28;20050;-71
2023/07/05 08:04:09;;;;;;;3.65;1.58;;;;;;;13.28;100.00;100330.19;4942130;28;20047;-72
2023/07/05 08:06:45;;;;;;;5.38;1.95;;;;;;;13.38;100.00;100343.81;4946197;28;20422;-73
2023/07/05 08:09:14;;;;;;;7.47;1.27;;;;;;;13.44;100.00;100339.25;4948110;28;20051;-70
2023/07/05 08:11:41;;;;;;;8.65;2.03;;;;;;;13.41;100.00;100328.19;4946713;28;20051;-73
2023/07/05 08:14:10;;;;;;;2.53;1.02;;;;;;;13.60;100.00;100330.03;4937763;28;20047;-72
2023/07/05 08:16:36;;;;;;;8.57;1.65;;;;;;;13.58;100.00;100332.47;4936119;28;20161;-71
2023/07/05 08:19:03;;;;;;;7.70;2.70;;;;;;;13.52;100.00;100353.78;4939977;28;20059;-76
2023/07/05 08:21:30;;;;;;;3.72;1.00;;;;;;;13.75;100.00;100345.09;4948924;28;20055;-74
2023/07/05 08:23:56;;;;;;;5.63;2.33;;;;;;;13.76;100.00;100353.03;4928779;28;20055;-71
2023/07/05 08:26:31;;;;;;;2.90;1.48;;;;;;;13.93;100.00;100353.66;4934726;28;20480;-71
2023/07/05 08:28:58;;;;;;;6.53;2.15;;;;;;;13.88;100.00;100365.44;4936923;28;20051;-71
2023/07/05 08:31:24;;;;;;;7.82;2.45;;;;;;;13.97;100.00;100345.94;4950651;28;20145;-73
2023/07/05 08:33:51;;;;;;;8.65;2.13;;;;;;;13.92;100.00;100360.50;4948348;28;20139;-73
2023/07/05 08:36:28;;;;;;;4.35;1.45;;;;;;;13.87;100.00;100347.09;4950928;28;20101;-73
2023/07/05 08:38:55;;;;;;;5.95;1.65;;;;;;;13.83;100.00;100408.66;4949221;28;20071;-75
2023/07/05 08:41:41;;;;;;;6.68;1.45;;;;;;;13.82;100.00;100373.59;4946903;28;20062;-75
2023/07/05 08:44:23;;;;;;;6.07;1.98;;;;;;;13.73;100.00;100379.06;4960501;28;20052;-73
2023/07/05 08:46:57;;;;;;;5.72;2.25;;;;;;;13.68;100.00;100384.44;4948830;28;20121;-73
2023/07/05 08:49:31;;;;;;;3.03;1.67;;;;;;;13.77;100.00;100379.72;4946200;28;20521;-74
2023/07/05 08:51:59;;;;;;;6.75;1.52;;;;;;;13.80;100.00;100387.22;4948528;28;20750;-73
2023/07/05 08:54:31;;;;;;;6.05;2.00;;;;;;;13.66;100.00;100392.44;4934035;28;20090;-73
2023/07/05 08:57:17;;;;;;;5.45;1.50;;;;;;;13.81;100.00;100380.38;4945728;28;20063;-72
2023/07/05 08:59:56;;;;;;;3.10;1.10;;;;;;;13.72;100.00;100394.25;4940997;28;20118;-73
2023/07/05 09:02:23;;;;;;;7.55;1.45;;;;;;;13.64;100.00;100411.69;4938017;28;20051;-72
2023/07/05 09:04:50;;;;;;;11.70;2.47;;;;;;;13.45;100.00;100419.03;4939313;28;20051;-73
2023/07/05 09:07:49;;;;;;;2.42;1.10;;;;;;;13.44;100.00;100413.91;4943097;28;20143;-74
2023/07/05 09:10:34;;;;;;;6.05;1.58;;;;;;;13.48;100.00;100426.53;4926345;28;20055;-75
2023/07/05 09:13:04;;;;;;;2.53;1.55;;;;;;;13.56;100.00;100416.69;4942340;28;20054;-77
2023/07/05 09:15:38;;;;;;;2.47;1.17;;;;;;;13.67;100.00;100424.78;4937027;28;20798;-74
2023/07/05 09:18:13;;;;;;;2.92;1.58;;;;;;;13.77;100.00;100415.28;4938684;28;20070;-74
2023/07/05 09:20:48;;;;;;;3.03;1.27;;;;;;;13.80;100.00;100417.94;4944049;28;20043;-73
2023/07/05 09:23:41;;;;;;;2.63;1.30;;;;;;;13.87;100.00;100420.53;4933272;28;20503;-74
2023/07/05 09:26:18;;;;;;;3.30;1.30;;;;;;;14.03;100.00;100417.63;4940803;28;20481;-74
2023/07/05 09:28:52;;;;;;;9.05;2.00;;;;;;;14.32;100.00;100423.06;4949004;28;20051;-74
2023/07/05 09:31:23;;;;;;;2.50;0.85;;;;;;;14.35;100.00;100419.38;4940033;28;20070;-74
2023/07/05 09:34:07;;;;;;;3.55;1.70;;;;;;;14.34;100.00;100423.38;4938170;28;20114;-73
2023/07/05 09:36:33;;;;;;;5.00;1.48;;;;;;;14.52;100.00;100409.63;4949300;28;20110;-76
2023/07/05 09:39:23;;;;;;;5.50;2.20;;;;;;;14.83;100.00;100427.31;4943051;28;20510;-75
2023/07/05 09:41:53;;;;;;;5.38;1.85;;;;;;;14.83;100.00;100433.69;4944897;28;20079;-73
2023/07/05 09:44:20;;;;;;;11.50;1.77;;;;;;;15.06;100.00;100423.31;4949248;28;21233;-73
2023/07/05 09:46:47;;;;;;;4.93;1.83;;;;;;;15.12;100.00;100433.44;4947853;28;20417;-75
2023/07/05 09:49:16;;;;;;;2.97;1.48;;;;;;;15.10;100.00;100424.75;4949726;28;20051;-77
2023/07/05 09:51:45;;;;;;;6.25;1.52;;;;;;;15.22;100.00;100439.94;4942596;28;20059;-77
2023/07/05 09:54:23;;;;;;;8.02;2.03;;;;;;;15.34;100.00;100437.06;4941391;28;20118;-77
2023/07/05 09:57:04;;;;;;;7.72;1.95;;;;;;;15.33;100.00;100429.91;4949556;28;20078;-75
2023/07/05 09:59:33;;;;;;;3.33;0.98;;;;;;;15.38;100.00;100440.53;4950315;28;20565;-75
2023/07/05 10:02:23;;;;;;;3.17;1.17;;;;;;;15.40;100.00;100446.47;4949614;28;20062;-74
2023/07/05 10:04:58;;;;;;;3.00;1.63;;;;;;;15.28;100.00;100454.88;4955051;28;20102;-75
2023/07/05 10:07:29;;;;;;;6.53;2.38;;;;;;;15.45;100.00;100454.28;4947798;28;20054;-74
2023/07/05 10:10:05;;;;;;;4.18;0.90;;;;;;;15.31;100.00;100443.56;4949935;28;20050;-74
2023/07/05 10:12:40;;;;;;;4.05;1.42;;;;;;;15.36;100.00;100467.44;4947075;28;20090;-75
2023/07/05 10:15:20;;;;;;;5.25;2.55;;;;;;;15.31;100.00;100457.56;4943214;28;20071;-74
2023/07/05 10:17:49;;;;;;;13.50;3.00;;;;;;;15.37;100.00;100469.78;4950025;28;20051;-73
2023/07/05 10:20:47;;;;;;;5.50;1.50;;;;;;;15.57;100.00;100483.44;4948075;28;20126;-75
2023/07/05 10:23:17;;;;;;;11.65;3.35;;;;;;;15.51;100.00;100468.47;4942760;28;20050;-74
2023/07/05 10:25:44;;;;;;;5.50;1.42;;;;;;;15.85;100.00;100493.59;4948220;28;20666;-74
2023/07/05 10:28:19;;;;;;;7.65;2.55;;;;;;;15.62;100.00;100500.44;4941082;28;20473;-72
2023/07/05 10:30:49;;;;;;;8.37;1.30;;;;;;;15.82;100.00;100489.69;4942569;28;20722;-76
2023/07/05 10:33:16;;;;;;;16.15;2.10;;;;;;;16.07;100.00;100466.28;4946069;28;20828;-76
2023/07/05 10:36:02;;;;;;;6.65;1.85;;;;;;;15.91;100.00;100477.72;4940218;28;20047;-75
2023/07/05 10:38:31;;;;;;;11.48;3.13;;;;;;;15.88;100.00;100475.84;4941882;28;20139;-77
2023/07/05 10:41:16;;;;;;;6.28;1.77;;;;;;;15.99;100.00;100482.59;4938593;28;20411;-75
2023/07/05 10:43:50;;;;;;;2.90;1.58;;;;;;;15.97;100.00;100499.09;4943823;28;20472;-75
2023/07/05 10:46:20;;;;;;;6.25;2.17;;;;;;;15.79;100.00;100499.00;4947065;28;20086;-75
2023/07/05 10:48:49;;;;;;;3.97;1.90;;;;;;;15.80;100.00;100528.59;4946413;28;20062;-76
2023/07/05 10:51:19;;;;;;;8.10;2.30;;;;;;;15.79;100.00;100499.00;4947638;28;20406;-77
2023/07/05 10:54:03;;;;;;;3.55;1.10;;;;;;;15.95;100.00;100507.19;4949825;28;20070;-74
2023/07/05 10:56:35;;;;;;;4.95;1.50;;;;;;;16.06;100.00;100510.38;4940483;28;20094;-75
2023/07/05 10:59:18;;;;;;;7.45;2.35;;;;;;;16.43;100.00;100517.72;4949155;28;20051;-74
2023/07/05 11:01:58;;;;;;;4.95;1.98;;;;;;;16.76;100.00;100527.19;4947080;28;20162;-74
2023/07/05 11:04:29;;;;;;;4.47;1.88;;;;;;;16.64;100.00;100553.34;4946126;28;20047;-73
2023/07/05 11:07:06;;;;;;;12.65;2.80;;;;;;;16.66;100.00;100527.63;4958933;28;20082;-77
2023/07/05 11:09:35;;;;;;;8.77;2.45;;;;;;;16.89;100.00;100511.00;4948970;28;20068;-75
2023/07/05 11:12:05;;;;;;;7.22;2.33;;;;;;;17.21;100.00;100534.91;4951770;28;20525;-78
2023/07/05 11:14:32;;;;;;;7.93;2.05;;;;;;;17.35;100.00;100526.66;4948245;28;20044;-74
2023/07/05 11:16:59;;;;;;;6.40;1.98;;;;;;;17.33;100.00;100529.16;4947657;28;20585;-75
2023/07/05 11:19:28;;;;;;;6.57;1.85;;;;;;;17.11;100.00;100548.19;4952553;28;20087;-76
2023/07/05 11:21:56;;;;;;;9.43;2.75;;;;;;;17.28;100.00;100543.03;4950739;28;20054;-73
2023/07/05 11:24:25;;;;;;;7.60;2.03;;;;;;;17.07;100.00;100555.16;4945492;28;20138;-74
2023/07/05 11:26:52;;;;;;;12.02;2.83;;;;;;;16.90;100.00;100556.69;4952173;28;20078;-74